createdAt,value
2018-01-23T00:00:21.793Z,6.60
2018-01-23T00:02:50.084Z,6.60
2018-01-23T00:05:18.388Z,6.70
2018-01-23T00:07:46.673Z,6.70
2018-01-23T00:10:15.710Z,6.60
2018-01-23T00:12:43.970Z,6.60
2018-01-23T00:15:12.982Z,6.70
2018-01-23T00:17:41.258Z,6.70
2018-01-23T00:20:09.526Z,6.60
2018-01-23T00:22:38.317Z,6.60
2018-01-23T00:25:06.550Z,6.70
2018-01-23T00:27:34.819Z,6.60
2018-01-23T00:30:04.589Z,6.60
2018-01-23T00:32:32.839Z,6.60
2018-01-23T00:35:01.136Z,6.70
2018-01-23T00:37:29.365Z,6.60
2018-01-23T00:39:57.606Z,6.70
2018-01-23T00:42:25.873Z,6.70
2018-01-23T00:44:54.104Z,6.80
2018-01-23T00:47:22.390Z,6.80
2018-01-23T00:49:51.385Z,6.70
2018-01-23T00:52:19.678Z,6.70
2018-01-23T00:54:47.930Z,6.60
2018-01-23T00:57:16.165Z,6.70
2018-01-23T00:59:44.433Z,6.60
2018-01-23T01:02:12.692Z,6.60
2018-01-23T01:04:40.918Z,6.70
2018-01-23T01:07:09.204Z,6.70
2018-01-23T01:09:37.432Z,6.80
2018-01-23T01:12:05.715Z,6.70
2018-01-23T01:14:33.946Z,6.70
2018-01-23T01:17:02.204Z,6.70
2018-01-23T01:19:30.443Z,6.70
2018-01-23T01:21:58.711Z,6.70
2018-01-23T01:24:27.031Z,6.80
2018-01-23T01:26:55.292Z,6.80
2018-01-23T01:29:23.542Z,6.80
2018-01-23T01:31:51.797Z,6.80
2018-01-23T01:34:20.808Z,6.70
2018-01-23T01:36:49.049Z,6.60
2018-01-23T01:39:17.335Z,6.60
2018-01-23T01:41:45.565Z,6.60
2018-01-23T01:44:13.881Z,6.50
2018-01-23T01:46:42.135Z,6.60
2018-01-23T01:49:10.391Z,6.60
2018-01-23T01:51:38.651Z,6.60
2018-01-23T01:54:07.651Z,6.80
2018-01-23T01:56:35.950Z,6.70
2018-01-23T01:59:04.211Z,6.80
2018-01-23T02:01:32.474Z,6.80
2018-01-23T02:04:01.509Z,6.80
2018-01-23T02:06:29.797Z,6.70
2018-01-23T02:08:58.508Z,6.70
2018-01-23T02:11:26.704Z,6.70
2018-01-23T02:13:55.735Z,6.70
2018-01-23T02:16:23.976Z,6.70
2018-01-23T02:18:52.981Z,6.70
2018-01-23T02:21:21.244Z,6.60
2018-01-23T02:23:50.292Z,6.70
2018-01-23T02:26:18.517Z,6.60
2018-01-23T02:28:46.807Z,6.70
2018-01-23T02:31:15.836Z,6.80
2018-01-23T02:33:44.142Z,6.70
2018-01-23T02:36:12.397Z,6.80
2018-01-23T02:38:40.661Z,6.80
2018-01-23T02:41:08.933Z,6.80
2018-01-23T02:43:37.233Z,6.80
2018-01-23T02:46:05.467Z,6.80
2018-01-23T02:48:34.497Z,6.70
2018-01-23T02:51:02.718Z,6.70
2018-01-23T02:53:31.765Z,6.70
2018-01-23T02:56:00.034Z,6.70
2018-01-23T02:58:28.281Z,6.70
2018-01-23T03:00:57.280Z,6.80
2018-01-23T03:03:25.561Z,6.80
2018-01-23T03:05:54.549Z,6.80
2018-01-23T03:08:22.822Z,6.80
2018-01-23T03:10:51.125Z,6.80
2018-01-23T03:13:19.383Z,6.80
2018-01-23T03:15:48.388Z,6.80
2018-01-23T03:18:16.630Z,6.80
2018-01-23T03:20:45.664Z,6.90
2018-01-23T03:23:13.918Z,6.90
2018-01-23T03:25:42.975Z,6.90
2018-01-23T03:28:11.224Z,7.00
2018-01-23T03:30:39.469Z,7.00
2018-01-23T03:33:08.495Z,7.20
2018-01-23T03:35:37.574Z,7.10
2018-01-23T03:38:05.820Z,7.10
2018-01-23T03:40:34.833Z,7.00
2018-01-23T03:43:03.867Z,7.00
2018-01-23T03:45:32.119Z,6.90
2018-01-23T03:48:01.140Z,7.00
2018-01-23T03:50:29.371Z,7.00
2018-01-23T03:52:58.415Z,7.00
2018-01-23T03:55:26.702Z,7.00
2018-01-23T03:57:54.951Z,7.10
2018-01-23T04:00:23.233Z,7.10
2018-01-23T04:02:51.485Z,7.10
2018-01-23T04:05:19.734Z,7.10
2018-01-23T04:07:47.977Z,7.10
2018-01-23T04:10:16.254Z,7.20
2018-01-23T04:12:44.553Z,7.20
2018-01-23T04:15:12.784Z,7.20
2018-01-23T04:17:41.037Z,7.20
2018-01-23T04:20:10.070Z,7.20
2018-01-23T04:22:38.340Z,7.20
2018-01-23T04:25:06.587Z,7.30
2018-01-23T04:27:35.605Z,7.20
2018-01-23T04:30:03.903Z,7.20
2018-01-23T04:32:32.129Z,7.10
2018-01-23T04:35:01.147Z,7.00
2018-01-23T04:37:29.396Z,7.00
2018-01-23T04:39:57.685Z,6.90
2018-01-23T04:42:25.912Z,7.00
2018-01-23T04:44:54.193Z,7.00
2018-01-23T04:47:22.444Z,7.10
2018-01-23T04:49:50.712Z,7.00
2018-01-23T04:52:19.711Z,7.00
2018-01-23T04:54:47.996Z,7.00
2018-01-23T04:57:17.010Z,6.80
2018-01-23T04:59:45.305Z,6.80
2018-01-23T05:02:14.895Z,6.60
2018-01-23T05:04:43.125Z,6.60
2018-01-23T05:07:12.145Z,6.60
2018-01-23T05:09:40.408Z,6.60
2018-01-23T05:12:08.661Z,6.70
2018-01-23T05:14:36.928Z,6.70
2018-01-23T05:17:05.175Z,6.80
2018-01-23T05:19:33.431Z,6.80
2018-01-23T05:22:01.929Z,6.90
2018-01-23T05:24:31.183Z,6.90
2018-01-23T05:26:59.439Z,6.90
2018-01-23T05:29:28.494Z,6.90
2018-01-23T05:31:56.751Z,6.90
2018-01-23T05:34:25.573Z,6.90
2018-01-23T05:36:53.859Z,6.80
2018-01-23T05:39:22.115Z,6.80
2018-01-23T05:41:50.349Z,6.80
2018-01-23T05:44:19.385Z,6.70
2018-01-23T05:46:47.646Z,6.70
2018-01-23T05:49:15.891Z,6.70
2018-01-23T05:51:44.149Z,6.60
2018-01-23T05:54:12.414Z,6.60
2018-01-23T05:56:40.674Z,6.60
2018-01-23T05:59:08.923Z,6.70
2018-01-23T06:01:37.971Z,6.80
2018-01-23T06:04:06.212Z,6.70
2018-01-23T06:06:34.488Z,6.70
2018-01-23T06:09:02.733Z,6.80
2018-01-23T06:11:33.224Z,6.90
2018-01-23T06:14:01.561Z,6.90
2018-01-23T06:16:29.776Z,6.90
2018-01-23T06:18:58.101Z,7.00
2018-01-23T06:21:26.437Z,6.90
2018-01-23T06:23:54.708Z,6.80
2018-01-23T06:26:23.002Z,6.70
2018-01-23T06:28:51.237Z,6.70
2018-01-23T06:31:19.466Z,6.70
2018-01-23T06:33:47.722Z,6.70
2018-01-23T06:36:16.030Z,6.70
2018-01-23T06:38:45.316Z,6.60
2018-01-23T06:41:13.583Z,6.60
2018-01-23T06:43:41.853Z,6.50
2018-01-23T06:46:10.134Z,6.60
2018-01-23T06:48:38.673Z,6.50
2018-01-23T06:51:07.691Z,6.60
2018-01-23T06:53:35.975Z,6.60
2018-01-23T06:56:04.206Z,6.70
2018-01-23T06:58:33.251Z,6.70
2018-01-23T07:01:02.525Z,6.70
2018-01-23T07:03:30.788Z,6.70
2018-01-23T07:05:59.821Z,6.70
2018-01-23T07:08:28.063Z,6.60
2018-01-23T07:10:57.182Z,6.60
2018-01-23T07:13:25.429Z,6.60
2018-01-23T07:15:54.454Z,6.70
2018-01-23T07:18:23.460Z,6.70
2018-01-23T07:20:51.717Z,6.70
2018-01-23T07:23:19.998Z,6.80
2018-01-23T07:25:48.258Z,6.80
2018-01-23T07:28:17.284Z,6.80
2018-01-23T07:30:45.550Z,6.80
2018-01-23T07:33:14.526Z,6.80
2018-01-23T07:35:43.544Z,6.70
2018-01-23T07:38:11.789Z,6.70
2018-01-23T07:40:40.162Z,6.80
2018-01-23T07:43:08.377Z,6.70
2018-01-23T07:45:36.628Z,6.70
2018-01-23T07:48:05.646Z,6.70
2018-01-23T07:50:33.930Z,6.70
2018-01-23T07:53:02.459Z,6.70
2018-01-23T07:55:30.697Z,6.70
2018-01-23T07:57:59.122Z,6.70
2018-01-23T08:00:27.352Z,6.70
2018-01-23T08:02:55.653Z,6.70
2018-01-23T08:05:23.896Z,6.70
2018-01-23T08:07:52.670Z,6.60
2018-01-23T08:10:21.021Z,6.70
2018-01-23T08:12:49.240Z,6.70
2018-01-23T08:15:17.485Z,6.70
2018-01-23T08:17:45.793Z,6.70
2018-01-23T08:20:14.039Z,6.70
2018-01-23T08:22:43.111Z,6.80
2018-01-23T08:25:11.385Z,6.80
2018-01-23T08:27:39.649Z,6.80
2018-01-23T08:30:07.887Z,6.70
2018-01-23T08:32:36.170Z,6.70
2018-01-23T08:35:05.183Z,6.80
2018-01-23T08:37:33.506Z,6.70
2018-01-23T08:40:01.785Z,6.80
2018-01-23T08:42:30.009Z,6.80
2018-01-23T08:44:58.263Z,6.90
2018-01-23T08:47:27.301Z,7.00
2018-01-23T08:49:55.551Z,7.00
2018-01-23T08:52:23.918Z,7.00
2018-01-23T08:54:52.958Z,7.10
2018-01-23T08:57:21.212Z,7.00
2018-01-23T08:59:49.475Z,7.10
2018-01-23T09:02:17.726Z,7.20
2018-01-23T09:04:46.772Z,7.20
2018-01-23T09:07:15.014Z,7.20
2018-01-23T09:09:44.044Z,7.30
2018-01-23T09:12:12.305Z,7.20
2018-01-23T09:14:40.553Z,7.20
2018-01-23T09:17:08.799Z,7.30
2018-01-23T09:19:38.557Z,7.30
2018-01-23T09:22:07.270Z,7.30
2018-01-23T09:24:35.532Z,7.40
2018-01-23T09:27:03.873Z,7.40
2018-01-23T09:29:32.101Z,7.40
2018-01-23T09:32:00.393Z,7.40
2018-01-23T09:34:28.654Z,7.40
2018-01-23T09:36:56.891Z,7.30
2018-01-23T09:39:25.949Z,7.30
2018-01-23T09:41:54.218Z,7.30
2018-01-23T09:44:22.454Z,7.30
2018-01-23T09:46:51.496Z,7.50
2018-01-23T09:49:19.725Z,7.40
2018-01-23T09:51:48.747Z,7.50
2018-01-23T09:54:16.969Z,7.50
2018-01-23T09:56:45.696Z,7.60
2018-01-23T09:59:13.965Z,7.60
2018-01-23T10:01:42.994Z,7.60
2018-01-23T10:04:11.280Z,7.60
2018-01-23T10:06:39.541Z,7.70
2018-01-23T10:09:07.795Z,7.60
2018-01-23T10:11:36.089Z,7.60
2018-01-23T10:14:04.334Z,7.70
2018-01-23T10:16:33.386Z,7.80
2018-01-23T10:19:01.798Z,7.70
2018-01-23T10:21:30.021Z,7.80
2018-01-23T10:23:58.259Z,7.80
2018-01-23T10:26:27.284Z,7.90
2018-01-23T10:28:55.563Z,7.90
2018-01-23T10:31:23.841Z,7.80
2018-01-23T10:33:52.078Z,7.90
2018-01-23T10:36:20.336Z,7.90
2018-01-23T10:38:48.606Z,7.80
2018-01-23T10:41:16.846Z,7.80
2018-01-23T10:43:45.114Z,7.80
2018-01-23T10:46:14.778Z,7.80
2018-01-23T10:48:43.057Z,7.80
2018-01-23T10:51:11.323Z,7.80
2018-01-23T10:53:39.580Z,7.80
2018-01-23T10:56:08.610Z,7.80
2018-01-23T10:58:36.866Z,7.80
2018-01-23T11:01:05.954Z,7.80
2018-01-23T11:03:34.191Z,8.00
2018-01-23T11:06:03.220Z,8.00
2018-01-23T11:08:31.466Z,8.00
2018-01-23T11:11:00.462Z,8.10
2018-01-23T11:13:29.489Z,8.20
2018-01-23T11:15:57.718Z,8.20
2018-01-23T11:18:25.994Z,8.20
2018-01-23T11:20:54.276Z,8.30
2018-01-23T11:23:23.292Z,8.20
2018-01-23T11:25:51.626Z,8.20
2018-01-23T11:28:19.921Z,8.20
2018-01-23T11:30:48.165Z,8.30
2018-01-23T11:33:17.211Z,8.10
2018-01-23T11:35:46.217Z,8.10
2018-01-23T11:38:14.469Z,8.10
2018-01-23T11:40:42.712Z,8.10
2018-01-23T11:43:10.966Z,8.20
2018-01-23T11:45:39.217Z,8.10
2018-01-23T11:48:08.215Z,8.20
2018-01-23T11:50:37.193Z,8.10
2018-01-23T11:53:06.246Z,8.30
2018-01-23T11:55:34.479Z,8.30
2018-01-23T11:58:03.518Z,8.30
2018-01-23T12:00:31.752Z,8.30
2018-01-23T12:03:00.057Z,8.40
2018-01-23T12:05:28.320Z,8.40
2018-01-23T12:07:56.594Z,8.40
2018-01-23T12:10:24.829Z,8.50
2018-01-23T12:12:53.066Z,8.50
2018-01-23T12:15:21.371Z,8.60
2018-01-23T12:17:49.673Z,8.70
2018-01-23T12:20:17.917Z,8.70
2018-01-23T12:22:46.144Z,8.80
2018-01-23T12:25:15.220Z,8.90
2018-01-23T12:27:43.431Z,8.90
2018-01-23T12:30:11.743Z,9.00
2018-01-23T12:32:40.009Z,8.90
2018-01-23T12:35:08.233Z,9.00
2018-01-23T12:37:37.292Z,9.10
2018-01-23T12:40:05.536Z,9.10
2018-01-23T12:42:33.822Z,9.10
2018-01-23T12:45:02.071Z,9.00
2018-01-23T12:47:30.306Z,8.90
2018-01-23T12:49:58.571Z,8.80
2018-01-23T12:52:26.830Z,8.70
2018-01-23T12:54:55.166Z,8.70
2018-01-23T12:57:23.407Z,8.50
2018-01-23T12:59:51.784Z,8.50
2018-01-23T13:02:20.323Z,8.50
2018-01-23T13:04:49.361Z,8.50
2018-01-23T13:07:18.098Z,8.50
2018-01-23T13:09:47.164Z,8.30
2018-01-23T13:12:15.453Z,8.30
2018-01-23T13:14:43.717Z,8.30
2018-01-23T13:17:11.974Z,8.40
2018-01-23T13:19:40.250Z,8.50
2018-01-23T13:22:08.514Z,8.30
2018-01-23T13:24:37.562Z,8.40
2018-01-23T13:27:07.333Z,8.40
2018-01-23T13:29:35.641Z,8.40
2018-01-23T13:32:03.882Z,8.40
2018-01-23T13:34:32.120Z,8.50
2018-01-23T13:37:01.132Z,8.70
2018-01-23T13:39:29.399Z,8.60
2018-01-23T13:41:57.669Z,8.70
2018-01-23T13:44:26.786Z,8.80
2018-01-23T13:46:55.106Z,8.80
2018-01-23T13:49:23.340Z,8.90
2018-01-23T13:51:52.377Z,8.70
2018-01-23T13:54:20.638Z,8.70
2018-01-23T13:56:48.921Z,8.70
2018-01-23T13:59:17.254Z,8.90
2018-01-23T14:01:46.399Z,9.10
2018-01-23T14:04:14.715Z,9.00
2018-01-23T14:06:43.281Z,9.10
2018-01-23T14:09:11.592Z,9.10
2018-01-23T14:11:40.611Z,8.90
2018-01-23T14:14:09.360Z,8.90
2018-01-23T14:16:38.445Z,9.00
2018-01-23T14:19:07.277Z,9.00
2018-01-23T14:21:36.322Z,8.90
2018-01-23T14:24:04.602Z,8.90
2018-01-23T14:26:32.816Z,8.80
2018-01-23T14:29:01.889Z,8.90
2018-01-23T14:31:30.126Z,8.90
2018-01-23T14:33:58.387Z,9.00
2018-01-23T14:36:26.621Z,8.90
2018-01-23T14:38:54.915Z,8.90
2018-01-23T14:41:23.944Z,8.80
2018-01-23T14:43:52.271Z,8.80
2018-01-23T14:46:20.547Z,8.80
2018-01-23T14:48:48.774Z,8.70
2018-01-23T14:51:17.054Z,8.70
2018-01-23T14:53:45.794Z,8.60
2018-01-23T14:56:14.089Z,8.50
2018-01-23T14:58:42.515Z,8.50
2018-01-23T15:01:10.792Z,8.40
2018-01-23T15:03:39.039Z,8.40
2018-01-23T15:06:08.088Z,8.30
2018-01-23T15:08:37.157Z,8.30
2018-01-23T15:11:06.300Z,8.30
2018-01-23T15:13:34.540Z,8.20
2018-01-23T15:16:02.777Z,8.20
2018-01-23T15:18:31.052Z,8.10
2018-01-23T15:21:00.162Z,8.10
2018-01-23T15:23:28.485Z,8.10
2018-01-23T15:25:56.742Z,8.10
2018-01-23T15:28:24.991Z,8.10
2018-01-23T15:30:53.284Z,8.10
2018-01-23T15:33:21.713Z,8.00
2018-01-23T15:35:49.930Z,7.90
2018-01-23T15:38:18.978Z,7.90
2018-01-23T15:40:48.102Z,7.90
2018-01-23T15:43:16.366Z,7.90
2018-01-23T15:45:44.689Z,7.90
2018-01-23T15:48:12.947Z,8.00
2018-01-23T15:50:41.993Z,7.90
2018-01-23T15:53:10.334Z,7.90
2018-01-23T15:55:39.375Z,7.90
2018-01-23T15:58:07.676Z,7.90
2018-01-23T16:00:35.954Z,8.00
2018-01-23T16:03:04.218Z,8.00
2018-01-23T16:05:32.768Z,7.90
2018-01-23T16:08:01.051Z,7.90
2018-01-23T16:10:29.312Z,7.90
2018-01-23T16:12:57.568Z,7.80
2018-01-23T16:15:26.015Z,7.80
2018-01-23T16:17:54.228Z,7.80
2018-01-23T16:20:22.494Z,7.80
2018-01-23T16:22:51.536Z,7.90
2018-01-23T16:25:19.799Z,7.90
2018-01-23T16:27:48.096Z,7.90
2018-01-23T16:30:16.351Z,7.90
2018-01-23T16:32:44.628Z,7.90
2018-01-23T16:35:13.607Z,7.90
2018-01-23T16:37:41.896Z,7.90
2018-01-23T16:40:10.897Z,7.90
2018-01-23T16:42:39.161Z,7.90
2018-01-23T16:45:07.427Z,7.90
2018-01-23T16:47:36.464Z,8.00
2018-01-23T16:50:04.727Z,8.00
2018-01-23T16:52:32.967Z,7.90
2018-01-23T16:55:02.012Z,7.90
2018-01-23T16:57:30.269Z,7.90
2018-01-23T16:59:59.227Z,7.90
2018-01-23T17:02:28.819Z,7.90
2018-01-23T17:04:57.065Z,7.90
2018-01-23T17:07:25.358Z,7.90
2018-01-23T17:09:53.632Z,7.90
2018-01-23T17:12:22.348Z,7.90
2018-01-23T17:14:50.558Z,7.90
2018-01-23T17:17:18.870Z,7.90
2018-01-23T17:19:47.127Z,7.90
2018-01-23T17:22:15.367Z,7.80
2018-01-23T17:24:44.775Z,7.70
2018-01-23T17:27:13.133Z,7.70
2018-01-23T17:29:41.343Z,7.70
2018-01-23T17:32:09.650Z,7.70
2018-01-23T17:34:37.994Z,7.70
2018-01-23T17:37:06.237Z,7.70
2018-01-23T17:39:36.034Z,7.80
2018-01-23T17:42:04.305Z,7.80
2018-01-23T17:44:34.176Z,7.90
2018-01-23T17:47:03.207Z,7.90
2018-01-23T17:49:31.492Z,7.90
2018-01-23T17:51:59.748Z,7.90
2018-01-23T17:54:28.765Z,8.00
2018-01-23T17:56:57.070Z,8.00
2018-01-23T17:59:25.345Z,8.00
2018-01-23T18:01:53.628Z,8.00
2018-01-23T18:04:21.885Z,8.00
2018-01-23T18:06:50.198Z,8.00
2018-01-23T18:09:18.763Z,8.00
2018-01-23T18:11:48.559Z,8.00
2018-01-23T18:14:16.808Z,8.00
2018-01-23T18:16:45.064Z,8.10
2018-01-23T18:19:14.107Z,8.20
2018-01-23T18:21:42.417Z,8.20
2018-01-23T18:24:11.548Z,8.20
2018-01-23T18:26:39.817Z,8.20
2018-01-23T18:29:08.915Z,8.30
2018-01-23T18:31:37.957Z,8.20
2018-01-23T18:34:06.245Z,8.20
2018-01-23T18:36:34.458Z,8.10
2018-01-23T18:39:03.513Z,8.10
2018-01-23T18:41:32.619Z,8.10
2018-01-23T18:44:00.984Z,8.20
2018-01-23T18:46:29.363Z,8.10
2018-01-23T18:48:57.619Z,8.10
2018-01-23T18:51:25.935Z,8.10
2018-01-23T18:53:54.992Z,8.10
2018-01-23T18:56:23.252Z,8.10
2018-01-23T18:58:51.589Z,8.10
2018-01-23T19:01:19.846Z,8.20
2018-01-23T19:03:48.611Z,8.20
2018-01-23T19:06:17.141Z,8.20
2018-01-23T19:08:45.520Z,8.20
2018-01-23T19:11:14.294Z,8.20
2018-01-23T19:13:42.706Z,8.20
2018-01-23T19:16:11.114Z,8.20
2018-01-23T19:18:39.461Z,8.20
2018-01-23T19:21:08.570Z,8.20
2018-01-23T19:23:37.853Z,8.20
2018-01-23T19:26:06.865Z,8.10
2018-01-23T19:28:35.236Z,8.10
2018-01-23T19:31:04.443Z,8.10
2018-01-23T19:33:33.508Z,8.10
2018-01-23T19:36:01.777Z,8.10
2018-01-23T19:38:30.478Z,8.00
2018-01-23T19:40:58.762Z,8.10
2018-01-23T19:43:27.797Z,8.10
2018-01-23T19:45:56.352Z,8.10
2018-01-23T19:48:26.812Z,8.10
2018-01-23T19:50:55.437Z,8.10
2018-01-23T19:53:25.161Z,8.10
2018-01-23T19:55:54.889Z,8.10
2018-01-23T19:58:23.706Z,8.10
2018-01-23T20:00:52.559Z,8.10
2018-01-23T20:03:21.360Z,8.10
2018-01-23T20:05:51.174Z,8.10
2018-01-23T20:08:19.875Z,8.10
2018-01-23T20:10:48.220Z,8.00
2018-01-23T20:13:17.732Z,8.00
2018-01-23T20:15:46.368Z,8.00
2018-01-23T20:18:14.702Z,7.90
2018-01-23T20:20:44.309Z,8.00
2018-01-23T20:23:12.659Z,8.00
2018-01-23T20:25:40.943Z,8.00
2018-01-23T20:28:09.215Z,8.00
2018-01-23T20:30:39.361Z,8.00
2018-01-23T20:33:08.450Z,7.90
2018-01-23T20:35:36.929Z,7.90
2018-01-23T20:38:05.187Z,8.00
2018-01-23T20:40:34.386Z,8.00
2018-01-23T20:43:05.042Z,8.00
2018-01-23T20:45:33.450Z,8.00
2018-01-23T20:48:02.511Z,7.90
2018-01-23T20:50:30.907Z,7.90
2018-01-23T20:52:59.207Z,8.00
2018-01-23T20:55:27.544Z,8.00
2018-01-23T20:57:56.721Z,8.00
2018-01-23T21:00:25.403Z,8.10
2018-01-23T21:02:55.987Z,8.10
2018-01-23T21:05:25.217Z,8.00
2018-01-23T21:07:54.271Z,8.10
2018-01-23T21:10:22.516Z,8.10
2018-01-23T21:12:50.770Z,8.10
2018-01-23T21:15:19.051Z,8.10
2018-01-23T21:17:47.328Z,8.20
2018-01-23T21:20:16.371Z,8.30
2018-01-23T21:22:44.666Z,8.30
2018-01-23T21:25:12.908Z,8.30
2018-01-23T21:27:41.213Z,8.30
2018-01-23T21:30:10.538Z,8.40
2018-01-23T21:32:39.614Z,8.40
2018-01-23T21:35:07.853Z,8.40
2018-01-23T21:37:36.163Z,8.40
2018-01-23T21:40:04.436Z,8.40
2018-01-23T21:42:32.737Z,8.50
2018-01-23T21:45:01.017Z,8.40
2018-01-23T21:47:29.378Z,8.40
2018-01-23T21:49:57.635Z,8.40
2018-01-23T21:52:25.867Z,8.40
2018-01-23T21:54:54.139Z,8.40
2018-01-23T21:57:22.386Z,8.40
2018-01-23T21:59:51.358Z,8.40
2018-01-23T22:02:19.606Z,8.40
2018-01-23T22:04:48.822Z,8.40
2018-01-23T22:07:17.595Z,8.50
2018-01-23T22:09:45.889Z,8.50
2018-01-23T22:12:14.171Z,8.40
2018-01-23T22:14:43.179Z,8.50
2018-01-23T22:17:11.470Z,8.50
2018-01-23T22:19:39.978Z,8.50
2018-01-23T22:22:08.997Z,8.60
2018-01-23T22:24:37.278Z,8.50
2018-01-23T22:27:05.529Z,8.60
2018-01-23T22:29:34.819Z,8.60
2018-01-23T22:32:03.062Z,8.60
2018-01-23T22:34:31.312Z,8.60
2018-01-23T22:36:59.569Z,8.60
2018-01-23T22:39:28.598Z,8.60
2018-01-23T22:41:56.868Z,8.60
2018-01-23T22:44:25.118Z,8.60
2018-01-23T22:46:54.091Z,8.70
2018-01-23T22:49:22.361Z,8.60
2018-01-23T22:51:50.617Z,8.60
2018-01-23T22:54:18.909Z,8.60
2018-01-23T22:56:48.730Z,8.60
2018-01-23T22:59:16.961Z,8.60
2018-01-23T23:01:45.246Z,8.60
2018-01-23T23:04:13.495Z,8.60
2018-01-23T23:06:41.726Z,8.60
2018-01-23T23:09:10.038Z,8.60
2018-01-23T23:11:39.040Z,8.60
2018-01-23T23:14:07.294Z,8.60
2018-01-23T23:16:36.333Z,8.60
2018-01-23T23:19:04.574Z,8.70
2018-01-23T23:21:32.833Z,8.70
2018-01-23T23:24:01.066Z,8.70
2018-01-23T23:26:29.331Z,8.70
2018-01-23T23:28:57.821Z,8.80
2018-01-23T23:31:26.078Z,8.70
2018-01-23T23:33:55.197Z,8.90
2018-01-23T23:36:23.491Z,8.80
2018-01-23T23:38:52.030Z,8.90
2018-01-23T23:41:21.040Z,8.90
2018-01-23T23:43:49.279Z,8.90
2018-01-23T23:46:17.528Z,8.90
2018-01-23T23:48:45.831Z,8.90
2018-01-23T23:51:14.682Z,9.00
2018-01-23T23:53:42.957Z,9.00
2018-01-23T23:56:11.223Z,8.90
2018-01-23T23:58:39.471Z,9.00
